NCAR-RAP Real-Time Weather Data

Output produced by METARs form (17 September 2019  16:47 UTC)
found at http://weather.rap.ucar.edu/surface/
 
KLAS 171556Z 19012KT 10SM FEW250 24/03 A2996 RMK AO2 SLP122 T02440028
KLAS 171456Z 19011KT 10SM FEW250 23/03 A2994 RMK AO2 SLP115 T02330033 51034
KLAS 171356Z 19010G14KT 10SM FEW250 22/03 A2993 RMK AO2 SLP110 T02220028
KLAS 171256Z 21008G18KT 10SM FEW220 23/02 A2987 RMK AO2 SLP091 T02280017
KLAS 171156Z 20010G20KT 10SM FEW220 23/02 A2984 RMK AO2 SLP078 T02330022 10283 20233 51011
KLAS 171056Z 20015G25KT 10SM BKN220 24/03 A2983 RMK AO2 SLP074 T02390028
KLAS 170956Z 20017G27KT 10SM BKN220 24/01 A2981 RMK AO2 PK WND 20027/0956 SLP068 OCNL VCBLDU T02440006
KLAS 170856Z 23017G29KT 10SM FEW140 BKN220 26/M01 A2980 RMK AO2 PK WND 24029/0853 SLP063 OCNL VCBLDU T02561011 52012
KLAS 170756Z 21012G19KT 10SM FEW140 BKN220 27/M01 A2979 RMK AO2 SLP059 T02671006 403500267
KLAS 170656Z 22016G23KT 10SM FEW160 BKN220 28/M02 A2977 RMK AO2 PK WND 22027/0602 SLP053 T02781017
KLAS 170556Z 22017G27KT 10SM FEW120 FEW160 BKN200 28/M03 A2976 RMK AO2 PK WND 22029/0543 SLP050 T02831033 10333 20278 50002
KLAS 170456Z 22011G19KT 10SM FEW120 FEW160 BKN200 29/M02 A2977 RMK AO2 SLP051 T02941017
KLAS 170356Z 22007KT 10SM FEW120 FEW160 BKN200 30/00 A2977 RMK AO2 PK WND 22027/0338 SLP051 T03000000
KLAS 170256Z 23014G21KT 10SM SCT120 SCT160 BKN200 31/M01 A2976 RMK AO2 SLP049 T03061006 55002
KLAS 170056Z 24015G26KT 10SM SCT120 BKN160 BKN200 33/M02 A2974 RMK AO2 PK WND 24026/0004 SLP044 VCSH T03331022
KLAS 162356Z 24018G28KT 10SM SCT120 BKN160 BKN200 33/00 A2976 RMK AO2 PK WND 24028/2354 SLP049 VCSH T03330000 10350 20328 56013
KLAS 162256Z 23016G25KT 10SM SCT120 BKN160 BKN200 34/M03 A2977 RMK AO2 PK WND 22031/2213 SLP052 VCSH T03391033
KLAS 162156Z 20011G21KT 10SM FEW120 BKN160 BKN200 35/M01 A2979 RMK AO2 PK WND 23028/2057 SLP057 T03501011